sensor_id;sensor_type;location;lat;lon;timestamp;pressure;altitude;pressure_sealevel;temperature;humidity
64080;BME280;51042;49.696;10.808;2024-01-15T00:01:58;97445.31;;;-4.72;100.00
64080;BME280;51042;49.696;10.808;2024-01-15T00:04:23;97453.28;;;-4.75;100.00
64080;BME280;51042;49.696;10.808;2024-01-15T00:06:49;97447.53;;;-4.77;100.00
64080;BME280;51042;49.696;10.808;2024-01-15T00:09:14;97444.00;;;-4.81;100.00
64080;BME280;51042;49.696;10.808;2024-01-15T00:11:39;97427.53;;;-4.83;100.00
64080;BME280;51042;49.696;10.808;2024-01-15T00:14:04;97419.91;;;-4.81;100.00
64080;BME280;51042;49.696;10.808;2024-01-15T00:16:29;97418.00;;;-4.81;100.00
64080;BME280;51042;49.696;10.808;2024-01-15T00:18:55;97427.25;;;-4.78;100.00
64080;BME280;51042;49.696;10.808;2024-01-15T00:21:20;97411.13;;;-4.82;100.00
64080;BME280;51042;49.696;10.808;2024-01-15T00:23:45;97402.69;;;-4.84;100.00
64080;BME280;51042;49.696;10.808;2024-01-15T00:26:10;97407.66;;;-4.82;100.00
64080;BME280;51042;49.696;10.808;2024-01-15T00:28:36;97403.88;;;-4.81;100.00
64080;BME280;51042;49.696;10.808;2024-01-15T00:31:01;97392.03;;;-4.80;100.00
64080;BME280;51042;49.696;10.808;2024-01-15T00:33:26;97382.53;;;-4.78;100.00
64080;BME280;51042;49.696;10.808;2024-01-15T00:35:51;97390.19;;;-4.76;100.00
64080;BME280;51042;49.696;10.808;2024-01-15T00:38:17;97394.00;;;-4.77;100.00
64080;BME280;51042;49.696;10.808;2024-01-15T00:40:42;97399.41;;;-4.74;100.00
64080;BME280;51042;49.696;10.808;2024-01-15T00:43:08;97389.91;;;-4.71;100.00
64080;BME280;51042;49.696;10.808;2024-01-15T00:45:33;97386.06;;;-4.70;100.00
64080;BME280;51042;49.696;10.808;2024-01-15T00:47:58;97394.88;;;-4.70;100.00
64080;BME280;51042;49.696;10.808;2024-01-15T00:50:26;97369.66;;;-4.69;100.00
64080;BME280;51042;49.696;10.808;2024-01-15T00:52:51;97373.13;;;-4.68;100.00
64080;BME280;51042;49.696;10.808;2024-01-15T00:55:16;97382.69;;;-4.67;100.00
64080;BME280;51042;49.696;10.808;2024-01-15T00:57:41;97387.69;;;-4.66;100.00
64080;BME280;51042;49.696;10.808;2024-01-15T01:00:06;97386.53;;;-4.65;100.00
64080;BME280;51042;49.696;10.808;2024-01-15T01:02:32;97386.59;;;-4.61;100.00
64080;BME280;51042;49.696;10.808;2024-01-15T01:04:57;97388.16;;;-4.60;100.00
64080;BME280;51042;49.696;10.808;2024-01-15T01:07:22;97384.34;;;-4.59;100.00
64080;BME280;51042;49.696;10.808;2024-01-15T01:09:47;97381.28;;;-4.58;100.00
64080;BME280;51042;49.696;10.808;2024-01-15T01:12:13;97388.53;;;-4.58;100.00
64080;BME280;51042;49.696;10.808;2024-01-15T01:14:38;97384.38;;;-4.56;100.00
64080;BME280;51042;49.696;10.808;2024-01-15T01:17:03;97379.03;;;-4.56;100.00
64080;BME280;51042;49.696;10.808;2024-01-15T01:19:28;97381.72;;;-4.56;100.00
64080;BME280;51042;49.696;10.808;2024-01-15T01:21:55;97376.00;;;-4.54;100.00
64080;BME280;51042;49.696;10.808;2024-01-15T01:24:20;97376.78;;;-4.54;100.00
64080;BME280;51042;49.696;10.808;2024-01-15T01:26:45;97381.75;;;-4.52;100.00
64080;BME280;51042;49.696;10.808;2024-01-15T01:29:11;97390.19;;;-4.50;100.00
64080;BME280;51042;49.696;10.808;2024-01-15T01:31:41;97384.06;;;-4.50;100.00
64080;BME280;51042;49.696;10.808;2024-01-15T01:34:06;97377.94;;;-4.51;100.00
64080;BME280;51042;49.696;10.808;2024-01-15T01:36:32;97386.41;;;-4.49;100.00
64080;BME280;51042;49.696;10.808;2024-01-15T01:38:57;97379.19;;;-4.45;100.00
64080;BME280;51042;49.696;10.808;2024-01-15T01:41:22;97371.56;;;-4.43;100.00
64080;BME280;51042;49.696;10.808;2024-01-15T01:43:49;97373.88;;;-4.41;100.00
64080;BME280;51042;49.696;10.808;2024-01-15T01:46:14;97368.16;;;-4.40;100.00
64080;BME280;51042;49.696;10.808;2024-01-15T01:48:39;97372.00;;;-4.41;100.00
64080;BME280;51042;49.696;10.808;2024-01-15T01:51:04;97384.22;;;-4.40;100.00
64080;BME280;51042;49.696;10.808;2024-01-15T01:53:30;97378.88;;;-4.40;100.00
64080;BME280;51042;49.696;10.808;2024-01-15T01:55:56;97367.81;;;-4.38;100.00
64080;BME280;51042;49.696;10.808;2024-01-15T01:58:22;97385.75;;;-4.39;100.00
64080;BME280;51042;49.696;10.808;2024-01-15T02:00:47;97385.41;;;-4.37;100.00
64080;BME280;51042;49.696;10.808;2024-01-15T02:03:13;97389.69;;;-4.33;100.00
64080;BME280;51042;49.696;10.808;2024-01-15T02:05:39;97380.50;;;-4.32;100.00
64080;BME280;51042;49.696;10.808;2024-01-15T02:08:04;97387.41;;;-4.31;100.00
64080;BME280;51042;49.696;10.808;2024-01-15T02:10:29;97386.69;;;-4.28;100.00
64080;BME280;51042;49.696;10.808;2024-01-15T02:12:54;97385.56;;;-4.27;100.00
64080;BME280;51042;49.696;10.808;2024-01-15T02:15:20;97380.63;;;-4.25;100.00
64080;BME280;51042;49.696;10.808;2024-01-15T02:17:58;97381.78;;;-4.22;100.00
64080;BME280;51042;49.696;10.808;2024-01-15T02:20:23;97366.88;;;-4.23;100.00
64080;BME280;51042;49.696;10.808;2024-01-15T02:22:48;97376.84;;;-4.20;100.00
64080;BME280;51042;49.696;10.808;2024-01-15T02:25:13;97380.72;;;-4.18;100.00
64080;BME280;51042;49.696;10.808;2024-01-15T02:27:38;97384.97;;;-4.13;100.00
64080;BME280;51042;49.696;10.808;2024-01-15T02:30:04;97374.63;;;-4.15;100.00
64080;BME280;51042;49.696;10.808;2024-01-15T02:32:31;97388.44;;;-4.13;100.00
64080;BME280;51042;49.696;10.808;2024-01-15T02:34:56;97384.97;;;-4.13;100.00
64080;BME280;51042;49.696;10.808;2024-01-15T02:37:21;97368.13;;;-4.14;100.00
64080;BME280;51042;49.696;10.808;2024-01-15T02:39:47;97372.72;;;-4.14;100.00
64080;BME280;51042;49.696;10.808;2024-01-15T02:42:12;97384.19;;;-4.14;100.00
64080;BME280;51042;49.696;10.808;2024-01-15T02:44:37;97387.28;;;-4.12;100.00
64080;BME280;51042;49.696;10.808;2024-01-15T02:47:02;97382.69;;;-4.11;100.00
64080;BME280;51042;49.696;10.808;2024-01-15T02:49:27;97384.66;;;-4.08;100.00
64080;BME280;51042;49.696;10.808;2024-01-15T02:51:53;97383.53;;;-4.07;100.00
64080;BME280;51042;49.696;10.808;2024-01-15T02:54:18;97377.81;;;-4.05;100.00
64080;BME280;51042;49.696;10.808;2024-01-15T02:56:43;97376.28;;;-4.03;100.00
64080;BME280;51042;49.696;10.808;2024-01-15T02:59:08;97372.47;;;-4.02;100.00
64080;BME280;51042;49.696;10.808;2024-01-15T03:01:33;97385.91;;;-3.98;100.00
64080;BME280;51042;49.696;10.808;2024-01-15T03:03:58;97378.28;;;-3.96;100.00
64080;BME280;51042;49.696;10.808;2024-01-15T03:06:23;97378.69;;;-3.94;100.00
64080;BME280;51042;49.696;10.808;2024-01-15T03:08:49;97382.53;;;-3.92;100.00
64080;BME280;51042;49.696;10.808;2024-01-15T03:11:14;97378.75;;;-3.91;100.00
64080;BME280;51042;49.696;10.808;2024-01-15T03:13:39;97377.59;;;-3.90;100.00
64080;BME280;51042;49.696;10.808;2024-01-15T03:16:05;97379.16;;;-3.89;100.00
64080;BME280;51042;49.696;10.808;2024-01-15T03:18:30;97369.59;;;-3.86;100.00
64080;BME280;51042;49.696;10.808;2024-01-15T03:20:55;97362.34;;;-3.86;100.00
64080;BME280;51042;49.696;10.808;2024-01-15T03:23:20;97351.25;;;-3.84;100.00
64080;BME280;51042;49.696;10.808;2024-01-15T03:25:45;97364.66;;;-3.84;100.00
64080;BME280;51042;49.696;10.808;2024-01-15T03:28:10;97350.91;;;-3.83;100.00
64080;BME280;51042;49.696;10.808;2024-01-15T03:30:36;97348.22;;;-3.83;100.00
64080;BME280;51042;49.696;10.808;2024-01-15T03:33:01;97345.16;;;-3.81;100.00
64080;BME280;51042;49.696;10.808;2024-01-15T03:35:26;97340.19;;;-3.79;100.00
64080;BME280;51042;49.696;10.808;2024-01-15T03:37:54;97340.25;;;-3.76;100.00
64080;BME280;51042;49.696;10.808;2024-01-15T03:40:19;97343.69;;;-3.75;100.00
64080;BME280;51042;49.696;10.808;2024-01-15T03:42:44;97341.84;;;-3.71;100.00
64080;BME280;51042;49.696;10.808;2024-01-15T03:45:09;97340.69;;;-3.70;100.00
64080;BME280;51042;49.696;10.808;2024-01-15T03:47:34;97337.63;;;-3.68;100.00
64080;BME280;51042;49.696;10.808;2024-01-15T03:50:00;97346.06;;;-3.70;100.00
64080;BME280;51042;49.696;10.808;2024-01-15T03:52:25;97343.75;;;-3.68;100.00
64080;BME280;51042;49.696;10.808;2024-01-15T03:54:50;97349.53;;;-3.66;100.00
64080;BME280;51042;49.696;10.808;2024-01-15T03:57:15;97346.88;;;-3.62;100.00
64080;BME280;51042;49.696;10.808;2024-01-15T03:59:40;97360.69;;;-3.60;100.00
64080;BME280;51042;49.696;10.808;2024-01-15T04:02:06;97351.91;;;-3.57;100.00
64080;BME280;51042;49.696;10.808;2024-01-15T04:04:31;97360.38;;;-3.55;100.00
64080;BME280;51042;49.696;10.808;2024-01-15T04:06:56;97357.75;;;-3.52;100.00
64080;BME280;51042;49.696;10.808;2024-01-15T04:09:22;97358.13;;;-3.50;100.00
64080;BME280;51042;49.696;10.808;2024-01-15T04:11:47;97357.75;;;-3.48;100.00
64080;BME280;51042;49.696;10.808;2024-01-15T04:14:12;97354.72;;;-3.47;100.00
64080;BME280;51042;49.696;10.808;2024-01-15T04:16:37;97340.94;;;-3.45;100.00
64080;BME280;51042;49.696;10.808;2024-01-15T04:19:03;97357.44;;;-3.43;100.00
64080;BME280;51042;49.696;10.808;2024-01-15T04:21:28;97349.78;;;-3.41;100.00
64080;BME280;51042;49.696;10.808;2024-01-15T04:23:53;97344.06;;;-3.40;100.00
64080;BME280;51042;49.696;10.808;2024-01-15T04:26:18;97334.50;;;-3.37;100.00
64080;BME280;51042;49.696;10.808;2024-01-15T04:28:43;97339.09;;;-3.38;100.00
64080;BME280;51042;49.696;10.808;2024-01-15T04:31:08;97332.59;;;-3.37;100.00
64080;BME280;51042;49.696;10.808;2024-01-15T04:33:34;97337.94;;;-3.37;100.00
64080;BME280;51042;49.696;10.808;2024-01-15T04:36:05;97333.00;;;-3.35;100.00
64080;BME280;51042;49.696;10.808;2024-01-15T04:38:30;97329.94;;;-3.33;100.00
64080;BME280;51042;49.696;10.808;2024-01-15T04:40:55;97322.28;;;-3.31;100.00
64080;BME280;51042;49.696;10.808;2024-01-15T04:43:20;97323.06;;;-3.31;100.00
64080;BME280;51042;49.696;10.808;2024-01-15T04:45:45;97310.44;;;-3.30;100.00
64080;BME280;51042;49.696;10.808;2024-01-15T04:48:11;97324.25;;;-3.28;100.00
64080;BME280;51042;49.696;10.808;2024-01-15T04:50:36;97329.22;;;-3.26;100.00
64080;BME280;51042;49.696;10.808;2024-01-15T04:53:01;97335.78;;;-3.24;100.00
64080;BME280;51042;49.696;10.808;2024-01-15T04:55:26;97331.19;;;-3.23;100.00
64080;BME280;51042;49.696;10.808;2024-01-15T04:57:51;97327.38;;;-3.22;100.00
64080;BME280;51042;49.696;10.808;2024-01-15T05:00:16;97311.28;;;-3.22;100.00
64080;BME280;51042;49.696;10.808;2024-01-15T05:02:42;97321.22;;;-3.23;100.00
64080;BME280;51042;49.696;10.808;2024-01-15T05:05:07;97304.38;;;-3.20;100.00
64080;BME280;51042;49.696;10.808;2024-01-15T05:07:32;97310.50;;;-3.19;100.00
64080;BME280;51042;49.696;10.808;2024-01-15T05:09:57;97307.88;;;-3.16;100.00
64080;BME280;51042;49.696;10.808;2024-01-15T05:12:23;97304.41;;;-3.16;100.00
64080;BME280;51042;49.696;10.808;2024-01-15T05:14:48;97312.06;;;-3.15;100.00
64080;BME280;51042;49.696;10.808;2024-01-15T05:17:13;97311.72;;;-3.13;100.00
64080;BME280;51042;49.696;10.808;2024-01-15T05:19:38;97315.16;;;-3.13;100.00
64080;BME280;51042;49.696;10.808;2024-01-15T05:22:03;97313.25;;;-3.12;100.00
64080;BME280;51042;49.696;10.808;2024-01-15T05:24:28;97315.16;;;-3.13;100.00
64080;BME280;51042;49.696;10.808;2024-01-15T05:26:53;97322.06;;;-3.12;100.00
64080;BME280;51042;49.696;10.808;2024-01-15T05:29:19;97317.47;;;-3.11;100.00
64080;BME280;51042;49.696;10.808;2024-01-15T05:31:44;97307.88;;;-3.12;100.00
64080;BME280;51042;49.696;10.808;2024-01-15T05:34:09;97311.34;;;-3.12;100.00
64080;BME280;51042;49.696;10.808;2024-01-15T05:36:34;97315.16;;;-3.13;100.00
64080;BME280;51042;49.696;10.808;2024-01-15T05:38:59;97314.81;;;-3.11;100.00
64080;BME280;51042;49.696;10.808;2024-01-15T05:41:24;97312.06;;;-3.15;100.00
64080;BME280;51042;49.696;10.808;2024-01-15T05:43:50;97323.16;;;-3.20;100.00
64080;BME280;51042;49.696;10.808;2024-01-15T05:46:15;97327.75;;;-3.20;100.00
64080;BME280;51042;49.696;10.808;2024-01-15T05:48:41;97323.13;;;-3.23;100.00
64080;BME280;51042;49.696;10.808;2024-01-15T05:51:06;97339.22;;;-3.23;100.00
64080;BME280;51042;49.696;10.808;2024-01-15T05:53:31;97337.69;;;-3.24;100.00
64080;BME280;51042;49.696;10.808;2024-01-15T05:55:56;97339.59;;;-3.25;100.00
64080;BME280;51042;49.696;10.808;2024-01-15T05:58:21;97336.91;;;-3.25;100.00
64080;BME280;51042;49.696;10.808;2024-01-15T06:00:47;97343.03;;;-3.24;100.00
64080;BME280;51042;49.696;10.808;2024-01-15T06:03:13;97343.81;;;-3.24;100.00
64080;BME280;51042;49.696;10.808;2024-01-15T06:05:38;97351.50;;;-3.22;100.00
64080;BME280;51042;49.696;10.808;2024-01-15T06:08:03;97341.53;;;-3.22;100.00
64080;BME280;51042;49.696;10.808;2024-01-15T06:10:28;97346.53;;;-3.20;100.00
64080;BME280;51042;49.696;10.808;2024-01-15T06:12:53;97349.97;;;-3.20;100.00
64080;BME280;51042;49.696;10.808;2024-01-15T06:15:19;97343.06;;;-3.21;100.00
64080;BME280;51042;49.696;10.808;2024-01-15T06:17:44;97338.47;;;-3.20;100.00
64080;BME280;51042;49.696;10.808;2024-01-15T06:20:09;97330.06;;;-3.19;100.00
64080;BME280;51042;49.696;10.808;2024-01-15T06:22:35;97331.59;;;-3.18;100.00
64080;BME280;51042;49.696;10.808;2024-01-15T06:25:01;97330.84;;;-3.18;100.00
64080;BME280;51042;49.696;10.808;2024-01-15T06:27:26;97332.38;;;-3.17;100.00
64080;BME280;51042;49.696;10.808;2024-01-15T06:29:51;97324.72;;;-3.15;100.00
64080;BME280;51042;49.696;10.808;2024-01-15T06:32:16;97330.50;;;-3.13;100.00
64080;BME280;51042;49.696;10.808;2024-01-15T06:34:42;97331.66;;;-3.11;100.00
64080;BME280;51042;49.696;10.808;2024-01-15T06:37:07;97335.88;;;-3.10;100.00
64080;BME280;51042;49.696;10.808;2024-01-15T06:39:32;97335.13;;;-3.10;100.00
64080;BME280;51042;49.696;10.808;2024-01-15T06:41:57;97340.88;;;-3.08;100.00
64080;BME280;51042;49.696;10.808;2024-01-15T06:44:22;97335.91;;;-3.06;100.00
64080;BME280;51042;49.696;10.808;2024-01-15T06:46:47;97337.06;;;-3.07;100.00
64080;BME280;51042;49.696;10.808;2024-01-15T06:49:13;97319.41;;;-3.08;100.00
64080;BME280;51042;49.696;10.808;2024-01-15T06:51:38;97343.50;;;-3.15;100.00
64080;BME280;51042;49.696;10.808;2024-01-15T06:54:04;97353.06;;;-3.18;100.00
64080;BME280;51042;49.696;10.808;2024-01-15T06:56:29;97354.19;;;-3.22;100.00
64080;BME280;51042;49.696;10.808;2024-01-15T06:58:54;97359.91;;;-3.24;100.00
64080;BME280;51042;49.696;10.808;2024-01-15T07:01:20;97355.28;;;-3.27;100.00
64080;BME280;51042;49.696;10.808;2024-01-15T07:03:45;97365.22;;;-3.28;100.00
64080;BME280;51042;49.696;10.808;2024-01-15T07:06:10;97363.72;;;-3.28;100.00
64080;BME280;51042;49.696;10.808;2024-01-15T07:08:35;97372.91;;;-3.26;100.00
64080;BME280;51042;49.696;10.808;2024-01-15T07:11:03;97381.38;;;-3.24;100.00
64080;BME280;51042;49.696;10.808;2024-01-15T07:13:28;97387.91;;;-3.21;100.00
64080;BME280;51042;49.696;10.808;2024-01-15T07:15:53;97381.03;;;-3.19;100.00
64080;BME280;51042;49.696;10.808;2024-01-15T07:18:19;97398.25;;;-3.20;100.00
64080;BME280;51042;49.696;10.808;2024-01-15T07:20:44;97390.56;;;-3.21;100.00
64080;BME280;51042;49.696;10.808;2024-01-15T07:23:09;97396.34;;;-3.19;100.00
64080;BME280;51042;49.696;10.808;2024-01-15T07:25:34;97406.72;;;-3.18;100.00
64080;BME280;51042;49.696;10.808;2024-01-15T07:27:59;97408.69;;;-3.11;100.00
64080;BME280;51042;49.696;10.808;2024-01-15T07:30:25;97400.69;;;-3.08;100.00
64080;BME280;51042;49.696;10.808;2024-01-15T07:32:50;97419.09;;;-3.06;100.00
64080;BME280;51042;49.696;10.808;2024-01-15T07:35:15;97404.56;;;-3.02;100.00
64080;BME280;51042;49.696;10.808;2024-01-15T07:37:40;97413.72;;;-3.06;100.00
64080;BME280;51042;49.696;10.808;2024-01-15T07:40:05;97414.13;;;-3.04;100.00
64080;BME280;51042;49.696;10.808;2024-01-15T07:42:33;97420.25;;;-3.04;100.00
64080;BME280;51042;49.696;10.808;2024-01-15T07:44:58;97400.75;;;-3.01;100.00
64080;BME280;51042;49.696;10.808;2024-01-15T07:47:23;97404.94;;;-3.03;100.00
64080;BME280;51042;49.696;10.808;2024-01-15T07:49:49;97414.16;;;-3.01;100.00
64080;BME280;51042;49.696;10.808;2024-01-15T07:52:14;97413.03;;;-3.00;100.00
64080;BME280;51042;49.696;10.808;2024-01-15T07:54:39;97417.63;;;-2.97;100.00
64080;BME280;51042;49.696;10.808;2024-01-15T07:57:04;97417.72;;;-2.90;100.00
64080;BME280;51042;49.696;10.808;2024-01-15T07:59:29;97408.50;;;-2.92;100.00
64080;BME280;51042;49.696;10.808;2024-01-15T08:01:55;97403.84;;;-2.99;100.00
64080;BME280;51042;49.696;10.808;2024-01-15T08:04:20;97406.13;;;-3.01;100.00
64080;BME280;51042;49.696;10.808;2024-01-15T08:06:45;97407.25;;;-3.02;100.00
64080;BME280;51042;49.696;10.808;2024-01-15T08:09:11;97411.47;;;-3.01;100.00
64080;BME280;51042;49.696;10.808;2024-01-15T08:11:37;97417.28;;;-2.92;100.00
64080;BME280;51042;49.696;10.808;2024-01-15T08:14:03;97421.22;;;-2.82;100.00
64080;BME280;51042;49.696;10.808;2024-01-15T08:16:29;97413.97;;;-2.78;100.00
64080;BME280;51042;49.696;10.808;2024-01-15T08:18:54;97425.91;;;-2.72;100.00
64080;BME280;51042;49.696;10.808;2024-01-15T08:21:19;97418.25;;;-2.70;100.00
64080;BME280;51042;49.696;10.808;2024-01-15T08:23:44;97424.00;;;-2.68;100.00
64080;BME280;51042;49.696;10.808;2024-01-15T08:26:10;97415.59;;;-2.66;100.00
64080;BME280;51042;49.696;10.808;2024-01-15T08:28:35;97426.31;;;-2.70;100.00
64080;BME280;51042;49.696;10.808;2024-01-15T08:31:00;97422.44;;;-2.76;100.00
64080;BME280;51042;49.696;10.808;2024-01-15T08:33:25;97429.38;;;-2.68;100.00
64080;BME280;51042;49.696;10.808;2024-01-15T08:35:51;97422.50;;;-2.65;100.00
64080;BME280;51042;49.696;10.808;2024-01-15T08:38:16;97411.03;;;-2.62;100.00
64080;BME280;51042;49.696;10.808;2024-01-15T08:40:41;97405.25;;;-2.64;100.00
64080;BME280;51042;49.696;10.808;2024-01-15T08:43:06;97419.47;;;-2.64;100.00
64080;BME280;51042;49.696;10.808;2024-01-15T08:45:31;97419.47;;;-2.64;100.00
64080;BME280;51042;49.696;10.808;2024-01-15T08:47:57;97417.94;;;-2.61;100.00
64080;BME280;51042;49.696;10.808;2024-01-15T08:50:22;97413.38;;;-2.57;100.00
64080;BME280;51042;49.696;10.808;2024-01-15T08:52:47;97416.09;;;-2.50;100.00
64080;BME280;51042;49.696;10.808;2024-01-15T08:55:12;97417.03;;;-2.28;100.00
64080;BME280;51042;49.696;10.808;2024-01-15T08:57:38;97418.69;;;-2.10;100.00
64080;BME280;51042;49.696;10.808;2024-01-15T09:00:03;97419.53;;;-1.91;100.00
64080;BME280;51042;49.696;10.808;2024-01-15T09:02:28;97409.59;;;-1.80;100.00
64080;BME280;51042;49.696;10.808;2024-01-15T09:04:54;97412.41;;;-1.52;100.00
64080;BME280;51042;49.696;10.808;2024-01-15T09:07:19;97407.84;;;-1.30;100.00
64080;BME280;51042;49.696;10.808;2024-01-15T09:09:44;97395.50;;;-1.42;100.00
64080;BME280;51042;49.696;10.808;2024-01-15T09:12:09;97383.19;;;-1.53;100.00
64080;BME280;51042;49.696;10.808;2024-01-15T09:14:34;97382.34;;;-1.75;100.00
64080;BME280;51042;49.696;10.808;2024-01-15T09:17:00;97373.44;;;-1.93;100.00
64080;BME280;51042;49.696;10.808;2024-01-15T09:19:25;97374.97;;;-1.96;100.00
64080;BME280;51042;49.696;10.808;2024-01-15T09:21:51;97384.97;;;-1.89;100.00
64080;BME280;51042;49.696;10.808;2024-01-15T09:24:16;97372.72;;;-1.87;100.00
64080;BME280;51042;49.696;10.808;2024-01-15T09:26:41;97376.94;;;-1.79;100.00
64080;BME280;51042;49.696;10.808;2024-01-15T09:29:06;97383.88;;;-1.81;100.00
64080;BME280;51042;49.696;10.808;2024-01-15T09:31:31;97379.63;;;-1.82;100.00
64080;BME280;51042;49.696;10.808;2024-01-15T09:33:56;97386.59;;;-1.74;100.00
64080;BME280;51042;49.696;10.808;2024-01-15T09:36:23;97388.16;;;-1.62;100.00
64080;BME280;51042;49.696;10.808;2024-01-15T09:38:48;97382.34;;;-1.72;100.00
64080;BME280;51042;49.696;10.808;2024-01-15T09:41:14;97395.03;;;-1.72;100.00
64080;BME280;51042;49.696;10.808;2024-01-15T09:43:39;97381.97;;;-1.67;100.00
64080;BME280;51042;49.696;10.808;2024-01-15T09:46:05;97399.31;;;-1.57;100.00
64080;BME280;51042;49.696;10.808;2024-01-15T09:48:30;97393.94;;;-1.53;100.00
64080;BME280;51042;49.696;10.808;2024-01-15T09:50:58;97385.50;;;-1.55;100.00
64080;BME280;51042;49.696;10.808;2024-01-15T09:53:25;97375.50;;;-1.58;100.00
64080;BME280;51042;49.696;10.808;2024-01-15T09:55:50;97365.09;;;-1.63;100.00
64080;BME280;51042;49.696;10.808;2024-01-15T09:58:15;97364.72;;;-1.55;100.00
64080;BME280;51042;49.696;10.808;2024-01-15T10:00:41;97355.88;;;-1.62;100.00
64080;BME280;51042;49.696;10.808;2024-01-15T10:03:08;97343.19;;;-1.66;100.00
64080;BME280;51042;49.696;10.808;2024-01-15T10:05:36;97339.75;;;-1.62;100.00
64080;BME280;51042;49.696;10.808;2024-01-15T10:08:01;97351.66;;;-1.60;100.00
64080;BME280;51042;49.696;10.808;2024-01-15T10:10:27;97348.59;;;-1.55;100.00
64080;BME280;51042;49.696;10.808;2024-01-15T10:12:53;97350.88;;;-1.60;100.00
64080;BME280;51042;49.696;10.808;2024-01-15T10:15:22;97338.59;;;-1.65;100.00
64080;BME280;51042;49.696;10.808;2024-01-15T10:17:48;97337.06;;;-1.59;100.00
64080;BME280;51042;49.696;10.808;2024-01-15T10:20:13;97332.47;;;-1.51;100.00
64080;BME280;51042;49.696;10.808;2024-01-15T10:22:39;97336.72;;;-1.43;100.00
64080;BME280;51042;49.696;10.808;2024-01-15T10:25:05;97332.09;;;-1.43;100.00
64080;BME280;51042;49.696;10.808;2024-01-15T10:27:30;97318.66;;;-1.39;100.00
64080;BME280;51042;49.696;10.808;2024-01-15T10:29:59;97317.91;;;-1.43;100.00
64080;BME280;51042;49.696;10.808;2024-01-15T10:32:24;97307.88;;;-1.53;100.00
64080;BME280;51042;49.696;10.808;2024-01-15T10:34:50;97297.47;;;-1.55;100.00
64080;BME280;51042;49.696;10.808;2024-01-15T10:37:17;97292.09;;;-1.58;100.00
64080;BME280;51042;49.696;10.808;2024-01-15T10:39:42;97284.03;;;-1.58;100.00
64080;BME280;51042;49.696;10.808;2024-01-15T10:42:07;97280.22;;;-1.43;100.00
64080;BME280;51042;49.696;10.808;2024-01-15T10:44:33;97284.44;;;-1.35;100.00
64080;BME280;51042;49.696;10.808;2024-01-15T10:46:59;97267.16;;;-1.45;100.00
64080;BME280;51042;49.696;10.808;2024-01-15T10:49:24;97261.00;;;-1.42;100.00
64080;BME280;51042;49.696;10.808;2024-01-15T10:51:52;97268.31;;;-1.35;100.00
64080;BME280;51042;49.696;10.808;2024-01-15T10:54:17;97261.78;;;-1.24;100.00
64080;BME280;51042;49.696;10.808;2024-01-15T10:56:43;97260.59;;;-1.01;100.00
64080;BME280;51042;49.696;10.808;2024-01-15T10:59:10;97261.72;;;-0.88;100.00
64080;BME280;51042;49.696;10.808;2024-01-15T11:01:36;97250.22;;;-0.92;100.00
64080;BME280;51042;49.696;10.808;2024-01-15T11:04:02;97250.22;;;-0.96;100.00
64080;BME280;51042;49.696;10.808;2024-01-15T11:06:27;97252.91;;;-0.99;100.00
64080;BME280;51042;49.696;10.808;2024-01-15T11:08:54;97248.69;;;-1.00;100.00
64080;BME280;51042;49.696;10.808;2024-01-15T11:11:20;97238.69;;;-1.03;100.00
64080;BME280;51042;49.696;10.808;2024-01-15T11:13:49;97241.75;;;-0.94;100.00
64080;BME280;51042;49.696;10.808;2024-01-15T11:16:17;97239.81;;;-1.01;100.00
64080;BME280;51042;49.696;10.808;2024-01-15T11:18:43;97233.28;;;-0.93;100.00
64080;BME280;51042;49.696;10.808;2024-01-15T11:21:26;97220.94;;;-0.83;100.00
64080;BME280;51042;49.696;10.808;2024-01-15T11:23:56;97196.31;;;-0.82;100.00
64080;BME280;51042;49.696;10.808;2024-01-15T11:28:56;97210.22;;;-0.94;100.00
64080;BME280;51042;49.696;10.808;2024-01-15T11:31:28;97220.22;;;-0.91;100.00
64080;BME280;51042;49.696;10.808;2024-01-15T11:33:53;97219.47;;;-1.02;100.00
64080;BME280;51042;49.696;10.808;2024-01-15T11:36:20;97227.09;;;-0.79;100.00
64080;BME280;51042;49.696;10.808;2024-01-15T11:38:45;97225.56;;;-0.73;100.00
64080;BME280;51042;49.696;10.808;2024-01-15T11:41:13;97220.16;;;-0.66;100.00
64080;BME280;51042;49.696;10.808;2024-01-15T11:43:42;97218.59;;;-0.63;100.00
64080;BME280;51042;49.696;10.808;2024-01-15T11:46:11;97210.47;;;-0.53;100.00
64080;BME280;51042;49.696;10.808;2024-01-15T11:51:26;97193.19;;;-0.62;100.00
64080;BME280;51042;49.696;10.808;2024-01-15T11:53:51;97188.63;;;-0.72;100.00
64080;BME280;51042;49.696;10.808;2024-01-15T11:56:20;97191.25;;;-0.65;100.00
64080;BME280;51042;49.696;10.808;2024-01-15T11:58:47;97188.19;;;-0.64;100.00
64080;BME280;51042;49.696;10.808;2024-01-15T12:01:16;97182.81;;;-0.60;100.00
64080;BME280;51042;49.696;10.808;2024-01-15T12:03:41;97188.91;;;-0.49;100.00
64080;BME280;51042;49.696;10.808;2024-01-15T12:06:11;97190.31;;;-0.23;100.00
64080;BME280;51042;49.696;10.808;2024-01-15T12:08:48;97188.03;;;-0.28;100.00
64080;BME280;51042;49.696;10.808;2024-01-15T12:11:17;97180.38;;;-0.30;100.00
64080;BME280;51042;49.696;10.808;2024-01-15T12:13:45;97180.47;;;-0.58;100.00
64080;BME280;51042;49.696;10.808;2024-01-15T12:16:10;97186.38;;;-0.92;100.00
64080;BME280;51042;49.696;10.808;2024-01-15T12:18:38;97197.94;;;-1.09;100.00
64080;BME280;51042;49.696;10.808;2024-01-15T12:21:04;97195.97;;;-1.01;100.00
64080;BME280;51042;49.696;10.808;2024-01-15T12:23:33;97199.06;;;-0.96;100.00
64080;BME280;51042;49.696;10.808;2024-01-15T12:25:58;97197.91;;;-0.98;100.00
64080;BME280;51042;49.696;10.808;2024-01-15T12:28:27;97206.78;;;-1.05;100.00
64080;BME280;51042;49.696;10.808;2024-01-15T12:30:52;97201.78;;;-1.10;100.00
64080;BME280;51042;49.696;10.808;2024-01-15T12:33:20;97201.38;;;-1.05;100.00
64080;BME280;51042;49.696;10.808;2024-01-15T12:35:46;97206.41;;;-1.03;100.00
64080;BME280;51042;49.696;10.808;2024-01-15T12:38:11;97197.16;;;-1.02;100.00